createdAt,value
2022-09-05T00:01:03.572Z,57.63
2022-09-05T00:04:56.647Z,57.83
2022-09-05T00:08:00.468Z,57.45
2022-09-05T00:23:10.490Z,57.58
2022-09-05T00:33:27.914Z,57.10
2022-09-05T00:40:05.451Z,56.97
2022-09-05T00:43:15.701Z,57.02
2022-09-05T00:46:35.608Z,56.91
2022-09-05T01:00:53.275Z,56.71
2022-09-05T01:04:19.929Z,56.70
2022-09-05T01:06:58.272Z,57.23
2022-09-05T01:10:00.577Z,57.10
2022-09-05T01:13:18.530Z,57.29
2022-09-05T01:15:56.372Z,56.82
2022-09-05T01:23:20.849Z,56.70
2022-09-05T01:27:29.344Z,57.52
2022-09-05T01:30:59.562Z,57.39
2022-09-05T01:34:31.996Z,56.83
2022-09-05T01:53:15.537Z,56.95
2022-09-05T01:56:57.883Z,57.86
2022-09-05T01:59:51.730Z,57.22
2022-09-05T02:02:50.610Z,56.83
2022-09-05T02:05:47.718Z,57.23
2022-09-05T02:08:30.516Z,56.73
2022-09-05T02:11:03.595Z,56.90
2022-09-05T02:13:34.040Z,57.16
2022-09-05T02:16:22.804Z,57.11
2022-09-05T02:19:15.420Z,56.37
2022-09-05T02:22:15.151Z,56.70
2022-09-05T02:24:47.378Z,56.55
2022-09-05T02:28:03.903Z,56.27
2022-09-05T02:30:09.634Z,56.28
2022-09-05T02:32:55.526Z,56.25
2022-09-05T02:35:39.071Z,56.48
2022-09-05T02:44:48.220Z,56.41
2022-09-05T02:45:11.901Z,55.81
2022-09-05T02:45:17.493Z,56.35
2022-09-05T02:47:46.847Z,56.13
2022-09-05T02:53:52.056Z,55.93
2022-09-05T02:57:36.698Z,56.53
2022-09-05T02:57:41.152Z,56.31
2022-09-05T03:00:13.379Z,56.74
2022-09-05T03:03:19.361Z,56.40
2022-09-05T03:10:58.368Z,56.57
2022-09-05T03:18:20.930Z,56.16
2022-09-05T03:21:58.784Z,56.00
2022-09-05T03:25:36.795Z,56.25
2022-09-05T03:32:42.230Z,55.64
2022-09-05T03:43:40.475Z,55.03
2022-09-05T03:46:51.839Z,55.48
2022-09-05T03:57:08.458Z,54.82
2022-09-05T03:57:16.804Z,54.88
2022-09-05T03:57:23.792Z,54.78
2022-09-05T04:07:01.998Z,54.98
2022-09-05T04:08:19.338Z,54.49
2022-09-05T04:08:38.675Z,54.83
2022-09-05T04:11:25.303Z,54.54
2022-09-05T04:13:58.983Z,54.51
2022-09-05T04:16:33.886Z,54.50
2022-09-05T04:19:14.246Z,54.31
2022-09-05T04:22:12.233Z,54.19
2022-09-05T04:25:03.709Z,54.34
2022-09-05T04:27:49.639Z,53.69
2022-09-05T04:30:40.070Z,53.72
2022-09-05T04:33:33.511Z,53.77
2022-09-05T04:36:22.702Z,53.64
2022-09-05T04:39:17.706Z,53.59
2022-09-05T04:42:06.124Z,53.94
2022-09-05T04:44:37.627Z,53.79
2022-09-05T04:47:16.486Z,53.95
2022-09-05T04:50:01.805Z,53.91
2022-09-05T04:52:44.366Z,53.87
2022-09-05T04:55:21.109Z,53.92
2022-09-05T04:58:07.221Z,54.21
2022-09-05T05:05:43.677Z,54.42
2022-09-05T05:06:16.279Z,54.48
2022-09-05T05:06:46.170Z,54.47
2022-09-05T05:09:14.154Z,54.30
2022-09-05T05:18:00.977Z,54.98
2022-09-05T05:18:12.358Z,54.92
2022-09-05T05:18:42.430Z,54.80
2022-09-05T05:21:35.938Z,55.12
2022-09-05T05:24:15.798Z,54.75
2022-09-05T05:26:57.104Z,54.65
2022-09-05T05:30:07.402Z,55.41
2022-09-05T05:32:46.145Z,55.00
2022-09-05T05:35:32.570Z,55.23
2022-09-05T05:38:18.329Z,54.88
2022-09-05T05:40:52.263Z,54.98
2022-09-05T05:43:26.473Z,55.29
2022-09-05T05:46:08.348Z,54.78
2022-09-05T05:48:42.226Z,54.97
2022-09-05T05:51:17.498Z,54.95
2022-09-05T05:54:16.990Z,54.81
2022-09-05T05:57:18.824Z,54.43
2022-09-05T06:00:04.980Z,54.47
2022-09-05T06:03:26.511Z,54.61
2022-09-05T06:06:09.190Z,54.60
2022-09-05T06:11:27.874Z,54.55
2022-09-05T06:14:49.080Z,54.06
2022-09-05T06:15:44.879Z,54.11
2022-09-05T06:18:42.505Z,53.94
2022-09-05T06:22:11.675Z,54.28
2022-09-05T06:25:17.192Z,53.80
2022-09-05T06:28:19.188Z,53.97
2022-09-05T06:31:42.120Z,53.68
2022-09-05T06:34:32.911Z,53.76
2022-09-05T06:37:32.717Z,53.47
2022-09-05T06:40:32.021Z,53.15
2022-09-05T06:43:42.567Z,52.78
2022-09-05T06:47:22.087Z,52.31
2022-09-05T06:50:27.362Z,52.35
2022-09-05T06:53:46.761Z,52.47
2022-09-05T06:56:26.361Z,53.05
2022-09-05T06:59:39.029Z,52.69
2022-09-05T07:03:17.485Z,52.50
2022-09-05T07:06:03.649Z,53.10
2022-09-05T07:08:57.385Z,53.36
2022-09-05T07:11:44.631Z,53.19
2022-09-05T07:14:27.124Z,53.04
2022-09-05T07:17:48.493Z,53.60
2022-09-05T07:21:06.786Z,53.70
2022-09-05T07:24:24.502Z,53.24
2022-09-05T07:27:44.418Z,53.20
2022-09-05T07:30:45.968Z,53.09
2022-09-05T07:33:27.840Z,53.32
2022-09-05T07:36:12.124Z,53.06
2022-09-05T07:39:02.377Z,53.08
2022-09-05T07:41:53.839Z,52.58
2022-09-05T07:44:39.701Z,52.42
2022-09-05T07:48:04.505Z,52.22
2022-09-05T07:55:35.499Z,51.90
2022-09-05T07:57:04.919Z,51.99
2022-09-05T07:57:31.156Z,51.90
2022-09-05T08:00:29.722Z,50.98
2022-09-05T08:03:14.672Z,50.70
2022-09-05T08:05:59.762Z,50.96
2022-09-05T08:09:21.959Z,50.58
2022-09-05T08:12:16.596Z,50.92
2022-09-05T08:15:14.073Z,49.72
2022-09-05T08:18:10.630Z,50.29
2022-09-05T08:21:07.292Z,50.05
2022-09-05T08:24:05.560Z,49.80
2022-09-05T08:27:04.555Z,49.21
2022-09-05T08:29:47.444Z,49.59
2022-09-05T08:32:35.612Z,50.73
2022-09-05T08:35:47.592Z,52.35
2022-09-05T08:38:40.271Z,51.18
2022-09-05T08:41:49.402Z,50.83
2022-09-05T08:46:46.104Z,53.76
2022-09-05T08:48:32.919Z,52.29
2022-09-05T08:51:28.944Z,52.54
2022-09-05T08:54:23.962Z,53.99
2022-09-05T08:57:41.415Z,54.57
2022-09-05T09:00:24.519Z,55.79
2022-09-05T09:03:04.303Z,55.94
2022-09-05T09:06:13.500Z,58.36
2022-09-05T09:09:24.437Z,59.42
2022-09-05T09:12:20.585Z,59.13
2022-09-05T09:15:09.577Z,60.04
2022-09-05T09:17:51.147Z,59.21
2022-09-05T09:20:53.318Z,58.54
2022-09-05T09:23:52.966Z,58.67
2022-09-05T09:26:36.823Z,56.79
2022-09-05T09:29:20.184Z,55.47
2022-09-05T09:32:06.504Z,54.41
2022-09-05T09:34:53.850Z,53.60
2022-09-05T09:37:57.519Z,53.32
2022-09-05T09:41:02.366Z,52.34
2022-09-05T09:43:53.089Z,51.74
2022-09-05T09:47:01.332Z,50.76
2022-09-05T09:49:51.074Z,50.33
2022-09-05T09:53:05.742Z,50.43
2022-09-05T09:55:34.184Z,50.27
2022-09-05T09:58:31.871Z,50.24
2022-09-05T10:01:34.924Z,49.20
2022-09-05T10:10:39.665Z,49.41
2022-09-05T10:10:44.035Z,48.87
2022-09-05T10:14:55.008Z,48.50
2022-09-05T10:17:46.833Z,48.52
2022-09-05T10:21:20.936Z,47.16
2022-09-05T10:24:23.564Z,47.14
2022-09-05T10:27:24.993Z,46.34
2022-09-05T10:31:21.989Z,46.28
2022-09-05T10:35:23.325Z,45.15
2022-09-05T10:36:32.151Z,45.53
2022-09-05T10:39:31.605Z,44.74
2022-09-05T10:43:00.979Z,44.41
2022-09-05T10:45:44.006Z,44.75
2022-09-05T10:48:53.162Z,44.24
2022-09-05T10:51:52.045Z,44.62
2022-09-05T10:54:42.269Z,44.36
2022-09-05T10:57:28.596Z,44.26
2022-09-05T11:02:20.275Z,44.16
2022-09-05T11:03:52.742Z,44.34
2022-09-05T11:06:34.145Z,43.96
2022-09-05T11:09:48.544Z,43.19
2022-09-05T11:12:44.843Z,43.36
2022-09-05T11:15:33.186Z,43.91
2022-09-05T11:18:13.047Z,43.89
2022-09-05T11:20:53.903Z,43.69
2022-09-05T11:23:36.832Z,43.05
2022-09-05T11:26:31.917Z,43.27
2022-09-05T11:29:14.152Z,43.51
2022-09-05T11:34:31.346Z,43.16
2022-09-05T11:39:54.160Z,43.53
2022-09-05T11:39:55.339Z,42.79
2022-09-05T11:41:54.030Z,42.22
2022-09-05T11:44:27.484Z,41.75
2022-09-05T11:47:34.973Z,41.20
2022-09-05T11:50:54.489Z,41.76
2022-09-05T11:53:53.115Z,40.49
2022-09-05T11:56:54.424Z,40.40
2022-09-05T12:03:00.772Z,40.32
2022-09-05T12:05:50.767Z,39.96
2022-09-05T12:08:43.468Z,40.25
2022-09-05T12:11:43.374Z,40.24
2022-09-05T12:14:25.970Z,41.16
2022-09-05T12:17:10.056Z,40.39
2022-09-05T12:20:17.014Z,43.63
2022-09-05T12:23:38.491Z,43.78
2022-09-05T12:29:29.305Z,43.41
2022-09-05T12:34:03.442Z,42.56
2022-09-05T12:36:12.297Z,41.84
2022-09-05T12:40:54.352Z,42.52
2022-09-05T12:40:57.928Z,39.87
2022-09-05T12:41:46.220Z,43.07
2022-09-05T12:42:09.731Z,45.33
2022-09-05T12:44:41.691Z,43.69
2022-09-05T12:47:16.988Z,44.57
2022-09-05T12:49:52.216Z,44.71
2022-09-05T12:52:51.957Z,45.54
2022-09-05T12:55:32.517Z,45.50
2022-09-05T13:02:55.843Z,45.67
2022-09-05T13:03:14.502Z,48.67
2022-09-05T13:04:29.742Z,49.18
2022-09-05T13:07:09.810Z,48.73
2022-09-05T13:11:17.254Z,49.27
2022-09-05T13:14:58.329Z,49.53
2022-09-05T13:15:40.266Z,50.97
2022-09-05T13:18:19.851Z,50.34
2022-09-05T13:21:09.299Z,50.57
2022-09-05T13:24:04.073Z,50.18
2022-09-05T13:26:58.884Z,50.24
2022-09-05T13:30:46.916Z,51.65
2022-09-05T13:38:01.628Z,51.91
2022-09-05T13:38:14.181Z,52.03
2022-09-05T13:39:30.180Z,52.40
2022-09-05T13:42:03.828Z,52.49
2022-09-05T13:44:43.947Z,52.50
2022-09-05T13:47:29.909Z,52.72
2022-09-05T13:50:31.355Z,51.48
2022-09-05T13:53:15.304Z,52.52
2022-09-05T13:56:23.298Z,53.21
2022-09-05T13:59:15.587Z,52.75
2022-09-05T14:02:25.445Z,51.97
2022-09-05T14:05:33.072Z,52.30
2022-09-05T14:08:25.677Z,52.93
2022-09-05T14:11:35.886Z,52.81
2022-09-05T14:15:13.640Z,52.92
2022-09-05T14:18:19.953Z,52.68
2022-09-05T14:21:23.986Z,52.94
2022-09-05T14:24:27.345Z,52.03
2022-09-05T14:27:01.774Z,51.77
2022-09-05T14:29:42.515Z,50.93
2022-09-05T14:37:34.532Z,49.31
2022-09-05T14:38:00.924Z,49.09
2022-09-05T14:38:52.158Z,48.60
2022-09-05T14:41:54.661Z,48.83
2022-09-05T14:44:57.374Z,48.26
2022-09-05T14:48:09.283Z,48.55
2022-09-05T14:51:39.268Z,49.61
2022-09-05T15:01:46.267Z,47.61
2022-09-05T15:02:50.081Z,48.41
2022-09-05T15:07:20.945Z,50.24
2022-09-05T15:12:18.430Z,48.71
2022-09-05T15:13:25.854Z,50.30
2022-09-05T15:16:08.343Z,50.71
2022-09-05T15:18:48.521Z,50.82
2022-09-05T15:21:45.502Z,50.43
2022-09-05T15:24:33.756Z,50.58
2022-09-05T15:27:20.443Z,51.15
2022-09-05T15:30:05.417Z,51.67
2022-09-05T15:32:41.669Z,53.06
2022-09-05T15:35:20.508Z,51.67
2022-09-05T15:37:59.283Z,52.39
2022-09-05T15:40:47.705Z,52.85
2022-09-05T15:43:36.423Z,52.70
2022-09-05T15:46:06.752Z,53.04
2022-09-05T15:48:42.695Z,53.26
2022-09-05T15:51:50.545Z,53.30
2022-09-05T15:55:36.828Z,54.39
2022-09-05T16:02:00.933Z,53.68
2022-09-05T16:08:39.785Z,54.33
2022-09-05T16:10:39.106Z,54.96
2022-09-05T16:15:07.156Z,54.55
2022-09-05T16:23:16.526Z,55.35
2022-09-05T16:23:30.260Z,55.11
2022-09-05T16:25:37.148Z,54.29
2022-09-05T16:28:53.850Z,54.73
2022-09-05T16:32:02.710Z,54.69
2022-09-05T16:34:58.913Z,54.50
2022-09-05T16:37:49.484Z,55.29
2022-09-05T16:40:40.982Z,54.81
2022-09-05T16:43:42.879Z,55.15
2022-09-05T16:46:38.182Z,54.74
2022-09-05T16:49:41.641Z,55.44
2022-09-05T16:52:18.756Z,54.80
2022-09-05T16:55:15.553Z,55.04
2022-09-05T16:58:05.453Z,55.34
2022-09-05T17:01:20.798Z,55.10
2022-09-05T17:04:40.308Z,55.39
2022-09-05T17:07:29.069Z,55.67
2022-09-05T17:10:24.372Z,55.70
2022-09-05T17:12:57.643Z,55.90
2022-09-05T17:15:51.716Z,55.60
2022-09-05T17:18:33.592Z,55.93
2022-09-05T17:21:46.950Z,55.97
2022-09-05T17:29:17.266Z,55.41
2022-09-05T17:29:49.093Z,55.41
2022-09-05T17:33:51.165Z,54.60
2022-09-05T17:36:41.309Z,54.87
2022-09-05T17:39:45.117Z,54.74
2022-09-05T17:43:02.051Z,55.24
2022-09-05T17:45:57.602Z,55.43
2022-09-05T17:49:18.944Z,56.03
2022-09-05T17:52:21.181Z,56.14
2022-09-05T17:55:08.796Z,56.29
2022-09-05T17:57:41.533Z,56.24
2022-09-05T18:00:47.082Z,57.39
2022-09-05T18:03:38.726Z,57.66
2022-09-05T18:06:08.612Z,56.96
2022-09-05T18:08:52.736Z,56.73
2022-09-05T18:11:29.195Z,56.55
2022-09-05T18:14:25.090Z,57.32
2022-09-05T18:17:36.235Z,57.27
2022-09-05T18:19:56.216Z,57.16
2022-09-05T18:22:35.066Z,58.21
2022-09-05T18:28:41.976Z,58.88
2022-09-05T18:31:51.150Z,58.22
2022-09-05T18:34:31.363Z,58.35
2022-09-05T18:37:39.920Z,58.48
2022-09-05T18:40:16.665Z,58.28
2022-09-05T18:43:11.664Z,58.78
2022-09-05T18:45:52.890Z,59.03
2022-09-05T18:48:36.539Z,59.46
2022-09-05T18:51:13.050Z,58.41
2022-09-05T18:53:47.585Z,59.14
2022-09-05T18:56:32.980Z,59.03
2022-09-05T18:59:23.939Z,59.53
2022-09-05T19:01:54.307Z,59.09
2022-09-05T19:04:42.439Z,59.09
2022-09-05T19:07:22.467Z,59.16
2022-09-05T19:10:34.551Z,59.06
2022-09-05T19:13:19.692Z,59.29
2022-09-05T19:16:33.136Z,59.19
2022-09-05T19:19:20.657Z,59.13
2022-09-05T19:22:39.616Z,59.04
2022-09-05T19:24:56.243Z,59.41
2022-09-05T19:28:30.767Z,59.28
2022-09-05T19:36:50.317Z,59.66
2022-09-05T19:37:03.966Z,59.68
2022-09-05T19:37:10.140Z,59.62
2022-09-05T19:43:15.668Z,59.90
2022-09-05T19:47:35.037Z,59.61
2022-09-05T19:47:43.864Z,58.40
2022-09-05T19:48:34.214Z,59.44
2022-09-05T19:51:26.949Z,60.30
2022-09-05T19:54:04.453Z,60.74
2022-09-05T19:56:46.496Z,61.22
2022-09-05T19:59:18.675Z,60.08
2022-09-05T20:02:01.078Z,59.86
2022-09-05T20:04:40.934Z,60.43
2022-09-05T20:07:25.407Z,60.77
2022-09-05T20:09:59.952Z,60.35
2022-09-05T20:12:36.666Z,60.83
2022-09-05T20:15:35.905Z,61.13
2022-09-05T20:18:21.455Z,61.04
2022-09-05T20:20:56.590Z,61.67
2022-09-05T20:23:31.732Z,61.09
2022-09-05T20:26:01.624Z,61.97
2022-09-05T20:28:38.106Z,61.64
2022-09-05T20:31:16.214Z,61.81
2022-09-05T20:33:58.107Z,61.28
2022-09-05T20:43:15.107Z,61.34
2022-09-05T20:43:17.031Z,61.91
2022-09-05T20:43:32.630Z,61.82
2022-09-05T20:45:54.455Z,62.01
2022-09-05T20:54:07.911Z,61.86
2022-09-05T20:54:16.612Z,61.63
2022-09-05T20:54:32.014Z,61.94
2022-09-05T20:57:15.275Z,61.96
2022-09-05T20:59:48.841Z,61.63
2022-09-05T21:02:22.194Z,62.06
2022-09-05T21:05:21.022Z,62.27
2022-09-05T21:08:20.245Z,62.20
2022-09-05T21:10:55.916Z,62.25
2022-09-05T21:13:36.071Z,62.37
2022-09-05T21:16:16.290Z,62.07
2022-09-05T21:18:48.253Z,62.14
2022-09-05T21:21:30.180Z,62.25
2022-09-05T21:24:16.745Z,62.14
2022-09-05T21:26:52.824Z,61.41
2022-09-05T21:29:32.624Z,62.06
2022-09-05T21:32:11.043Z,61.23
2022-09-05T21:34:47.461Z,61.88
2022-09-05T21:37:22.863Z,61.88
2022-09-05T21:39:59.097Z,61.97
2022-09-05T21:42:54.791Z,62.29
2022-09-05T21:47:47.848Z,62.39
2022-09-05T21:48:10.893Z,62.16
2022-09-05T21:50:52.697Z,61.81
2022-09-05T21:55:19.559Z,61.46
2022-09-05T21:59:24.052Z,61.42
2022-09-05T22:02:07.377Z,61.52
2022-09-05T22:04:41.048Z,60.76
2022-09-05T22:07:16.548Z,60.76
2022-09-05T22:10:02.876Z,60.52
2022-09-05T22:12:39.365Z,61.19
2022-09-05T22:15:28.774Z,60.83
2022-09-05T22:18:16.066Z,60.38
2022-09-05T22:20:53.453Z,61.01
2022-09-05T22:23:36.958Z,60.12
2022-09-05T22:26:08.454Z,60.40
2022-09-05T22:28:49.129Z,60.84
2022-09-05T22:31:17.892Z,61.00
2022-09-05T22:33:46.319Z,61.00
2022-09-05T22:36:18.870Z,61.33
2022-09-05T22:38:47.328Z,60.76
2022-09-05T22:41:14.856Z,61.29
2022-09-05T22:43:42.304Z,61.04
2022-09-05T22:46:09.815Z,61.41
2022-09-05T22:48:39.931Z,61.08
2022-09-05T22:51:09.840Z,61.35
2022-09-05T22:53:37.120Z,61.13
2022-09-05T22:56:08.058Z,61.06
2022-09-05T22:58:44.277Z,61.05
2022-09-05T23:01:12.927Z,60.56
2022-09-05T23:03:40.229Z,60.25
2022-09-05T23:06:13.554Z,60.58
2022-09-05T23:08:40.651Z,61.18
2022-09-05T23:11:13.900Z,60.88
2022-09-05T23:13:41.213Z,61.68
2022-09-05T23:16:11.865Z,60.83
2022-09-05T23:18:39.175Z,60.88
2022-09-05T23:21:09.197Z,60.20
2022-09-05T23:23:37.630Z,60.72
2022-09-05T23:26:07.946Z,60.53
2022-09-05T23:28:40.746Z,59.96
2022-09-05T23:31:15.506Z,60.58
2022-09-05T23:33:43.146Z,60.35
2022-09-05T23:36:15.421Z,60.43
2022-09-05T23:38:44.138Z,60.03
2022-09-05T23:41:14.134Z,59.81
2022-09-05T23:43:42.063Z,60.05
2022-09-05T23:46:09.309Z,59.95
2022-09-05T23:48:36.801Z,60.11
2022-09-05T23:51:09.463Z,59.39
2022-09-05T23:53:37.236Z,59.51
2022-09-05T23:56:07.369Z,59.80
2022-09-05T23:58:35.783Z,60.12
